Data Viewer
| City | State | Eastern Time | Source | Temp | DewPt | RH | BP | 5 Min Precip | Wind Speed | Wind Dir | 5 Min Wind Max | 5 Min Wind Max Dir |
|---|---|---|---|---|---|---|---|---|---|---|---|---|
| Blairstown | NJ | 2026-05-03 08:09 | NCAWOS | 45 | 28 | 53 | 29.93 | NW | ||||
| Blairstown | NJ | 2026-05-03 23:04 | NCAWOS | 45 | 36 | 70 | 29.90 | N | ||||
| Blairstown | NJ | 2026-05-04 01:04 | NCAWOS | 41 | 36 | 81 | 29.93 | N | ||||
| Blairstown | NJ | 2026-05-04 01:00 | NCAWOS | 43 | 36 | 76 | 29.93 | N | ||||
| Blairstown | NJ | 2026-05-04 00:29 | NCAWOS | 43 | 37 | 81 | 29.92 | N | ||||
| Blairstown | NJ | 2026-05-04 00:24 | NCAWOS | 43 | 37 | 81 | 29.92 | N | ||||
| Blairstown | NJ | 2026-05-04 00:14 | NCAWOS | 43 | 37 | 81 | 29.92 | N | ||||
| Blairstown | NJ | 2026-05-04 00:10 | NCAWOS | 43 | 37 | 81 | 29.92 | N | ||||
| Blairstown | NJ | 2026-05-04 00:04 | NCAWOS | 43 | 36 | 76 | 29.92 | N | ||||
| Blairstown | NJ | 2026-05-04 00:00 | NCAWOS | 43 | 36 | 76 | 29.92 | N | ||||
| Blairstown | NJ | 2026-05-03 23:24 | NCAWOS | 45 | 36 | 70 | 29.90 | N | ||||
| Blairstown | NJ | 2026-05-03 23:19 | NCAWOS | 45 | 36 | 70 | 29.90 | N | ||||
| Blairstown | NJ | 2026-05-03 23:14 | NCAWOS | 45 | 36 | 70 | 29.90 | N | ||||
| Blairstown | NJ | 2026-05-03 23:09 | NCAWOS | 45 | 36 | 70 | 29.90 | N | ||||
| Blairstown | NJ | 2026-05-03 22:30 | NCAWOS | 46 | 35 | 66 | 29.90 | N | ||||
| Blairstown | NJ | 2026-05-04 01:15 | NCAWOS | 41 | 37 | 87 | 29.93 | N | ||||
| Blairstown | NJ | 2026-05-03 22:25 | NCAWOS | 46 | 37 | 71 | 29.90 | N | ||||
| Blairstown | NJ | 2026-05-03 22:20 | NCAWOS | 46 | 37 | 71 | 29.90 | N | ||||
| Blairstown | NJ | 2026-05-03 22:15 | NCAWOS | 46 | 35 | 66 | 29.90 | N | ||||
| Blairstown | NJ | 2026-05-03 22:09 | NCAWOS | 46 | 35 | 66 | 29.90 | N | ||||
| Blairstown | NJ | 2026-05-03 22:04 | NCAWOS | 46 | 37 | 71 | 29.90 | N | ||||
| Blairstown | NJ | 2026-05-03 21:24 | NCAWOS | 48 | 35 | 62 | 29.89 | N | ||||
| Blairstown | NJ | 2026-05-03 21:14 | NCAWOS | 50 | 30 | 46 | 29.89 | N | ||||
| Blairstown | NJ | 2026-05-03 21:10 | NCAWOS | 50 | 32 | 50 | 29.89 | N | ||||
| Blairstown | NJ | 2026-05-03 21:05 | NCAWOS | 50 | 34 | 54 | 29.89 | N | ||||
| Blairstown | NJ | 2026-05-03 21:00 | NCAWOS | 52 | 34 | 50 | 29.88 | N | ||||
| Blairstown | NJ | 2026-05-03 20:25 | NCAWOS | 55 | 30 | 38 | 29.86 | N | ||||
| Blairstown | NJ | 2026-05-03 20:14 | NCAWOS | 55 | 28 | 35 | 29.86 | N | ||||
| Blairstown | NJ | 2026-05-04 01:10 | NCAWOS | 41 | 37 | 87 | 29.93 | N | ||||
| Blairstown | NJ | 2026-05-04 01:20 | NCAWOS | 41 | 37 | 87 | 29.93 | N | ||||
| Blairstown | NJ | 2026-05-03 19:25 | NCAWOS | 59 | 25 | 27 | 29.84 | W | ||||
| Blairstown | NJ | 2026-05-04 04:25 | NCAWOS | 37 | 36 | 93 | 29.94 | N | ||||
| Blairstown | NJ | 2026-05-04 07:20 | NCAWOS | 41 | 37 | 87 | 29.95 | N | ||||
| Blairstown | NJ | 2026-05-04 07:05 | NCAWOS | 39 | 37 | 93 | 29.95 | N | ||||
| Blairstown | NJ | 2026-05-04 06:25 | NCAWOS | 36 | 34 | 93 | 29.95 | N | ||||
| Blairstown | NJ | 2026-05-04 06:20 | NCAWOS | 36 | 34 | 93 | 29.95 | N | ||||
| Blairstown | NJ | 2026-05-04 06:15 | NCAWOS | 36 | 34 | 93 | 29.95 | N | ||||
| Blairstown | NJ | 2026-05-04 06:10 | NCAWOS | 36 | 34 | 93 | 29.95 | N | ||||
| Blairstown | NJ | 2026-05-04 06:05 | NCAWOS | 36 | 34 | 93 | 29.95 | N | ||||
| Blairstown | NJ | 2026-05-04 05:25 | NCAWOS | 36 | 36 | 100 | 29.94 | N | ||||
| Blairstown | NJ | 2026-05-04 05:20 | NCAWOS | 36 | 36 | 100 | 29.94 | N | ||||
| Blairstown | NJ | 2026-05-04 05:15 | NCAWOS | 36 | 36 | 100 | 29.94 | N | ||||
| Blairstown | NJ | 2026-05-04 05:10 | NCAWOS | 36 | 36 | 100 | 29.94 | N | ||||
| Blairstown | NJ | 2026-05-04 05:05 | NCAWOS | 36 | 36 | 100 | 29.94 | N | ||||
| Blairstown | NJ | 2026-05-04 04:20 | NCAWOS | 37 | 36 | 93 | 29.94 | N | ||||
| Blairstown | NJ | 2026-05-04 01:25 | NCAWOS | 43 | 37 | 81 | 29.93 | N | ||||
| Blairstown | NJ | 2026-05-04 04:15 | NCAWOS | 37 | 36 | 93 | 29.94 | N | ||||
| Blairstown | NJ | 2026-05-04 04:09 | NCAWOS | 37 | 36 | 93 | 29.94 | N | ||||
| Blairstown | NJ | 2026-05-04 04:05 | NCAWOS | 37 | 36 | 93 | 29.94 | N | ||||
| Blairstown | NJ | 2026-05-04 03:19 | NCAWOS | 37 | 36 | 93 | 29.94 | N | ||||
| Blairstown | NJ | 2026-05-04 03:14 | NCAWOS | 37 | 36 | 93 | 29.94 | N | ||||
| Blairstown | NJ | 2026-05-04 03:09 | NCAWOS | 39 | 36 | 87 | 29.94 | N | ||||
| Blairstown | NJ | 2026-05-04 03:04 | NCAWOS | 39 | 36 | 87 | 29.94 | N | ||||
| Blairstown | NJ | 2026-05-04 02:24 | NCAWOS | 41 | 36 | 81 | 29.93 | N | ||||
| Blairstown | NJ | 2026-05-04 02:19 | NCAWOS | 41 | 36 | 81 | 29.93 | N | ||||
| Blairstown | NJ | 2026-05-04 02:14 | NCAWOS | 41 | 34 | 75 | 29.93 | N | ||||
| Blairstown | NJ | 2026-05-04 02:09 | NCAWOS | 43 | 34 | 70 | 29.93 | N | ||||
| Blairstown | NJ | 2026-05-04 02:04 | NCAWOS | 41 | 36 | 81 | 29.93 | N | ||||
| Blairstown | NJ | 2026-05-03 20:04 | NCAWOS | 55 | 28 | 35 | 29.85 | N | ||||
| Blairstown | NJ | 2026-05-03 19:04 | NCAWOS | 61 | 25 | 25 | 29.84 | W | ||||
| Blairstown | NJ | 2026-05-03 08:14 | NCAWOS | 45 | 28 | 53 | 29.92 | NNE | ||||
| Blairstown | NJ | 2026-05-03 10:20 | NCAWOS | 48 | 26 | 43 | 29.93 | NNE | ||||
| Blairstown | NJ | 2026-05-03 12:34 | NCAWOS | 52 | 25 | 35 | 29.90 | NNW | ||||
| Blairstown | NJ | 2026-05-03 12:24 | NCAWOS | 50 | 25 | 37 | 29.91 | N | ||||
| Blairstown | NJ | 2026-05-03 12:19 | NCAWOS | 48 | 23 | 37 | 29.92 | NW | ||||
| Blairstown | NJ | 2026-05-03 12:15 | NCAWOS | 50 | 25 | 37 | 29.92 | WNW | ||||
| Blairstown | NJ | 2026-05-03 12:10 | NCAWOS | 48 | 23 | 37 | 29.92 | NW | ||||
| Blairstown | NJ | 2026-05-03 12:05 | NCAWOS | 48 | 25 | 40 | 29.92 | NNW | ||||
| Blairstown | NJ | 2026-05-03 11:24 | NCAWOS | 48 | 25 | 40 | 29.92 | NNE | ||||
| Blairstown | NJ | 2026-05-03 11:19 | NCAWOS | 48 | 25 | 40 | 29.93 | WNW | ||||
| Blairstown | NJ | 2026-05-03 11:14 | NCAWOS | 48 | 25 | 40 | 29.93 | WNW | ||||
| Blairstown | NJ | 2026-05-03 11:09 | NCAWOS | 48 | 25 | 40 | 29.93 | NW | ||||
| Blairstown | NJ | 2026-05-03 11:04 | NCAWOS | 48 | 25 | 40 | 29.92 | WNW | ||||
| Blairstown | NJ | 2026-05-03 10:25 | NCAWOS | 48 | 25 | 40 | 29.93 | NW | ||||
| Blairstown | NJ | 2026-05-03 10:14 | NCAWOS | 48 | 25 | 40 | 29.93 | NW | ||||
| Blairstown | NJ | 2026-05-03 13:09 | NCAWOS | 52 | 21 | 30 | 29.89 | NNE | ||||
| Blairstown | NJ | 2026-05-03 10:10 | NCAWOS | 48 | 26 | 43 | 29.93 | NNE | ||||
| Blairstown | NJ | 2026-05-03 10:04 | NCAWOS | 48 | 26 | 43 | 29.93 | NNW | ||||
| Blairstown | NJ | 2026-05-03 10:00 | NCAWOS | 48 | 26 | 43 | 29.92 | WNW | ||||
| Blairstown | NJ | 2026-05-03 09:29 | NCAWOS | 46 | 26 | 46 | 29.93 | NE | ||||
| Blairstown | NJ | 2026-05-03 09:24 | NCAWOS | 45 | 26 | 49 | 29.93 | N | ||||
| Blairstown | NJ | 2026-05-03 09:19 | NCAWOS | 46 | 26 | 46 | 29.93 | N | ||||
| Blairstown | NJ | 2026-05-03 09:14 | NCAWOS | 46 | 28 | 49 | 29.93 | NNE | ||||
| Blairstown | NJ | 2026-05-03 09:10 | NCAWOS | 46 | 28 | 49 | 29.93 | NW | ||||
| Blairstown | NJ | 2026-05-03 09:05 | NCAWOS | 46 | 26 | 46 | 29.92 | NE | ||||
| Blairstown | NJ | 2026-05-03 09:00 | NCAWOS | 46 | 26 | 46 | 29.93 | NNE | ||||
| Blairstown | NJ | 2026-05-03 08:24 | NCAWOS | 46 | 28 | 49 | 29.92 | NNE | ||||
| Blairstown | NJ | 2026-05-03 08:20 | NCAWOS | 46 | 28 | 49 | 29.92 | NE | ||||
| Blairstown | NJ | 2026-05-03 13:04 | NCAWOS | 54 | 21 | 28 | 29.90 | NW | ||||
| Blairstown | NJ | 2026-05-03 13:15 | NCAWOS | 52 | 21 | 30 | 29.90 | NW | ||||
| Blairstown | NJ | 2026-05-03 19:00 | NCAWOS | 61 | 23 | 23 | 29.84 | WNW | ||||
| Blairstown | NJ | 2026-05-03 16:20 | NCAWOS | 57 | 21 | 24 | 29.84 | NNW | ||||
| Blairstown | NJ | 2026-05-03 18:24 | NCAWOS | 61 | 23 | 23 | 29.83 | WNW | ||||
| Blairstown | NJ | 2026-05-03 18:14 | NCAWOS | 61 | 21 | 22 | 29.83 | NNW | ||||
| Blairstown | NJ | 2026-05-03 18:09 | NCAWOS | 61 | 21 | 22 | 29.83 | WNW | ||||
| Blairstown | NJ | 2026-05-03 18:05 | NCAWOS | 61 | 21 | 22 | 29.83 | NW | ||||
| Blairstown | NJ | 2026-05-03 18:00 | NCAWOS | 61 | 21 | 22 | 29.84 | WNW | ||||
| Blairstown | NJ | 2026-05-03 17:30 | NCAWOS | 61 | 21 | 22 | 29.82 | WNW | ||||
| Blairstown | NJ | 2026-05-03 17:24 | NCAWOS | 59 | 19 | 21 | 29.82 | NW | ||||
| Blairstown | NJ | 2026-05-03 17:20 | NCAWOS | 61 | 21 | 22 | 29.82 | WNW | ||||
| Blairstown | NJ | 2026-05-03 17:09 | NCAWOS | 61 | 21 | 22 | 29.82 | WNW | ||||
| Blairstown | NJ | 2026-05-03 17:04 | NCAWOS | 61 | 21 | 22 | 29.83 | NW | ||||
| Blairstown | NJ | 2026-05-03 16:30 | NCAWOS | 59 | 19 | 21 | 29.83 | NNE | ||||
| Blairstown | NJ | 2026-05-03 16:25 | NCAWOS | 59 | 19 | 21 | 29.84 | N | ||||
| Blairstown | NJ | 2026-05-03 16:10 | NCAWOS | 57 | 19 | 23 | 29.84 | S | ||||
| Blairstown | NJ | 2026-05-03 13:19 | NCAWOS | 52 | 21 | 30 | 29.89 | SSW | ||||
| Blairstown | NJ | 2026-05-03 16:04 | NCAWOS | 57 | 21 | 24 | 29.84 | NNE | ||||
| Blairstown | NJ | 2026-05-03 15:24 | NCAWOS | 57 | 21 | 24 | 29.85 | WNW | ||||
| Blairstown | NJ | 2026-05-03 15:19 | NCAWOS | 57 | 21 | 24 | 29.85 | NW | ||||
| Blairstown | NJ | 2026-05-03 15:14 | NCAWOS | 55 | 21 | 26 | 29.85 | NW | ||||
| Blairstown | NJ | 2026-05-03 15:09 | NCAWOS | 55 | 21 | 26 | 29.86 | WNW | ||||
| Blairstown | NJ | 2026-05-03 15:05 | NCAWOS | 55 | 21 | 26 | 29.86 | W | ||||
| Blairstown | NJ | 2026-05-03 15:00 | NCAWOS | 55 | 21 | 26 | 29.86 | WNW | ||||
| Blairstown | NJ | 2026-05-03 14:24 | NCAWOS | 55 | 21 | 26 | 29.87 | NE | ||||
| Blairstown | NJ | 2026-05-03 14:19 | NCAWOS | 54 | 21 | 28 | 29.88 | N | ||||
| Blairstown | NJ | 2026-05-03 14:09 | NCAWOS | 54 | 21 | 28 | 29.88 | N | ||||
| Blairstown | NJ | 2026-05-03 14:04 | NCAWOS | 54 | 21 | 28 | 29.88 | NW | ||||
| Blairstown | NJ | 2026-05-03 13:25 | NCAWOS | 52 | 21 | 30 | 29.89 | NW | ||||
| Blairstown | NJ | 2026-05-04 07:24 | NCAWOS | 43 | 37 | 81 | 29.95 | N |
data collection created in 0.018665075302124 (queried in 0.004341) rendered in: 0.00017714500427246

